createdAt,value
2019-03-31T00:00:17.354Z,1012.54
2019-03-31T00:01:17.396Z,1012.56
2019-03-31T00:02:17.330Z,1012.57
2019-03-31T00:03:17.322Z,1012.58
2019-03-31T00:04:17.311Z,1012.53
2019-03-31T00:05:17.298Z,1012.58
2019-03-31T00:06:17.295Z,1012.57
2019-03-31T00:07:17.299Z,1012.52
2019-03-31T00:08:17.264Z,1012.54
2019-03-31T00:09:17.263Z,1012.56
2019-03-31T00:10:17.251Z,1012.53
2019-03-31T00:11:17.235Z,1012.53
2019-03-31T00:12:17.233Z,1012.54
2019-03-31T00:13:17.220Z,1012.50
2019-03-31T00:14:17.207Z,1012.55
2019-03-31T00:15:17.199Z,1012.52
2019-03-31T00:16:17.185Z,1012.54
2019-03-31T00:17:17.185Z,1012.50
2019-03-31T00:18:17.166Z,1012.54
2019-03-31T00:19:17.149Z,1012.52
2019-03-31T00:20:17.145Z,1012.49
2019-03-31T00:21:17.134Z,1012.49
2019-03-31T00:22:17.125Z,1012.50
2019-03-31T00:23:17.112Z,1012.48
2019-03-31T00:24:17.109Z,1012.48
2019-03-31T00:25:17.098Z,1012.45
2019-03-31T00:26:17.081Z,1012.45
2019-03-31T00:27:17.068Z,1012.44
2019-03-31T00:28:17.054Z,1012.45
2019-03-31T00:29:17.081Z,1012.47
2019-03-31T00:30:17.033Z,1012.40
2019-03-31T00:31:22.241Z,1012.44
2019-03-31T00:32:18.011Z,1012.39
2019-03-31T00:33:17.006Z,1012.42
2019-03-31T00:34:16.995Z,1012.42
2019-03-31T00:35:16.988Z,1012.44
2019-03-31T00:36:16.971Z,1012.46
2019-03-31T00:37:16.958Z,1012.45
2019-03-31T00:38:16.954Z,1012.45
2019-03-31T00:39:16.940Z,1012.43
2019-03-31T00:40:16.939Z,1012.43
2019-03-31T00:41:16.926Z,1012.47
2019-03-31T00:42:16.909Z,1012.47
2019-03-31T00:43:16.895Z,1012.53
2019-03-31T00:44:16.893Z,1012.57
2019-03-31T00:45:16.879Z,1012.59
2019-03-31T00:46:16.865Z,1012.55
2019-03-31T00:47:16.856Z,1012.49
2019-03-31T00:48:16.848Z,1012.52
2019-03-31T00:49:16.846Z,1012.53
2019-03-31T00:50:16.826Z,1012.55
2019-03-31T00:51:16.815Z,1012.58
2019-03-31T00:52:16.803Z,1012.53
2019-03-31T00:53:16.795Z,1012.58
2019-03-31T00:54:16.812Z,1012.56
2019-03-31T00:55:16.769Z,1012.60
2019-03-31T00:56:16.768Z,1012.57
2019-03-31T00:57:16.751Z,1012.58
2019-03-31T00:58:16.742Z,1012.62
2019-03-31T00:59:16.724Z,1012.58
2019-03-31T01:00:16.746Z,1012.58
2019-03-31T01:01:16.708Z,1012.59
2019-03-31T01:02:16.696Z,1012.60
2019-03-31T01:03:16.689Z,1012.60
2019-03-31T01:04:16.675Z,1012.58
2019-03-31T01:05:16.670Z,1012.58
2019-03-31T01:06:16.664Z,1012.58
2019-03-31T01:07:16.648Z,1012.60
2019-03-31T01:08:16.630Z,1012.56
2019-03-31T01:09:16.626Z,1012.57
2019-03-31T01:10:16.620Z,1012.58
2019-03-31T01:11:16.600Z,1012.61
2019-03-31T01:12:16.594Z,1012.65
2019-03-31T01:13:16.578Z,1012.64
2019-03-31T01:14:16.583Z,1012.64
2019-03-31T01:15:16.561Z,1012.64
2019-03-31T01:16:16.558Z,1012.67
2019-03-31T01:17:18.871Z,1012.65
2019-03-31T01:18:16.526Z,1012.65
2019-03-31T01:19:16.518Z,1012.63
2019-03-31T01:20:16.502Z,1012.67
2019-03-31T01:21:16.506Z,1012.66
2019-03-31T01:22:16.486Z,1012.71
2019-03-31T01:23:16.478Z,1012.68
2019-03-31T01:24:16.466Z,1012.67
2019-03-31T01:25:16.460Z,1012.67
2019-03-31T01:26:16.447Z,1012.70
2019-03-31T01:27:16.429Z,1012.69
2019-03-31T01:28:16.491Z,1012.71
2019-03-31T01:29:16.448Z,1012.70
2019-03-31T01:30:16.404Z,1012.69
2019-03-31T01:31:16.398Z,1012.68
2019-03-31T01:32:16.398Z,1012.71
2019-03-31T01:33:16.372Z,1012.70
2019-03-31T01:34:16.375Z,1012.69
2019-03-31T01:35:16.344Z,1012.71
2019-03-31T01:36:16.337Z,1012.72
2019-03-31T01:37:16.322Z,1012.73
2019-03-31T01:38:16.329Z,1012.77
2019-03-31T01:39:16.302Z,1012.75
2019-03-31T01:40:16.291Z,1012.76
2019-03-31T01:41:16.279Z,1012.74
2019-03-31T01:42:16.268Z,1012.71
2019-03-31T01:43:16.270Z,1012.74
2019-03-31T01:44:16.254Z,1012.74
2019-03-31T01:45:16.247Z,1012.74
2019-03-31T01:46:16.230Z,1012.82
2019-03-31T01:47:16.242Z,1012.83
2019-03-31T01:48:16.212Z,1012.80
2019-03-31T01:49:16.199Z,1012.83
2019-03-31T01:50:16.187Z,1012.83
2019-03-31T01:51:16.240Z,1012.83
2019-03-31T01:52:16.164Z,1012.83
2019-03-31T01:53:16.184Z,1012.81
2019-03-31T01:54:16.143Z,1012.81
2019-03-31T01:55:16.135Z,1012.81
2019-03-31T01:56:16.122Z,1012.85
2019-03-31T01:57:16.111Z,1012.84
2019-03-31T01:58:16.106Z,1012.81
2019-03-31T01:59:16.115Z,1012.81
2019-03-31T02:00:16.076Z,1012.81
2019-03-31T02:01:16.069Z,1012.79
2019-03-31T02:02:16.059Z,1012.82
2019-03-31T02:03:16.043Z,1012.83
2019-03-31T02:04:16.033Z,1012.84
2019-03-31T02:05:16.029Z,1012.83
2019-03-31T02:06:16.021Z,1012.83
2019-03-31T02:07:16.010Z,1012.90
2019-03-31T02:08:15.995Z,1012.88
2019-03-31T02:09:15.982Z,1012.87
2019-03-31T02:10:15.985Z,1012.88
2019-03-31T02:11:15.961Z,1012.89
2019-03-31T02:12:15.956Z,1012.86
2019-03-31T02:13:15.953Z,1012.86
2019-03-31T02:14:15.929Z,1012.84
2019-03-31T02:15:15.928Z,1012.87
2019-03-31T02:16:15.909Z,1012.91
2019-03-31T02:17:15.908Z,1012.95
2019-03-31T02:18:15.884Z,1012.94
2019-03-31T02:19:15.876Z,1012.87
2019-03-31T02:20:15.861Z,1012.88
2019-03-31T02:21:15.868Z,1012.93
2019-03-31T02:22:15.839Z,1012.86
2019-03-31T02:23:15.834Z,1012.93
2019-03-31T02:24:15.910Z,1012.92
2019-03-31T02:25:15.812Z,1012.91
2019-03-31T02:26:15.803Z,1012.89
2019-03-31T02:27:15.792Z,1012.91
2019-03-31T02:28:15.774Z,1012.90
2019-03-31T02:29:15.768Z,1012.90
2019-03-31T02:30:15.770Z,1012.89
2019-03-31T02:31:15.779Z,1012.87
2019-03-31T02:32:24.318Z,1012.92
2019-03-31T02:33:16.720Z,1012.91
2019-03-31T02:34:15.716Z,1012.89
2019-03-31T02:35:15.705Z,1012.89
2019-03-31T02:36:15.700Z,1012.89
2019-03-31T02:37:15.693Z,1012.92
2019-03-31T02:38:15.692Z,1012.92
2019-03-31T02:39:15.660Z,1012.89
2019-03-31T02:40:15.646Z,1012.89
2019-03-31T02:41:15.642Z,1012.88
2019-03-31T02:42:15.653Z,1012.88
2019-03-31T02:43:15.614Z,1012.92
2019-03-31T02:44:15.603Z,1012.93
2019-03-31T02:45:15.598Z,1012.93
2019-03-31T02:46:15.590Z,1012.94
2019-03-31T02:47:15.575Z,1012.91
2019-03-31T02:48:15.579Z,1012.92
2019-03-31T02:49:15.550Z,1012.89
2019-03-31T02:50:15.543Z,1012.90
2019-03-31T02:51:15.535Z,1012.89
2019-03-31T02:52:15.516Z,1012.89
2019-03-31T02:53:15.516Z,1012.91
2019-03-31T02:54:15.505Z,1012.91
2019-03-31T02:55:15.491Z,1012.95
2019-03-31T02:56:15.475Z,1012.92
2019-03-31T02:57:15.470Z,1012.96
2019-03-31T02:58:15.462Z,1012.94
2019-03-31T02:59:15.450Z,1012.98
2019-03-31T03:00:15.441Z,1012.96
2019-03-31T03:01:15.425Z,1012.97
2019-03-31T03:02:15.410Z,1012.96
2019-03-31T03:03:15.578Z,1012.99
2019-03-31T03:04:15.402Z,1012.99
2019-03-31T03:05:19.663Z,1013.03
2019-03-31T03:06:15.377Z,1013.01
2019-03-31T03:07:15.357Z,1013.01
2019-03-31T03:08:15.346Z,1013.06
2019-03-31T03:09:15.352Z,1013.04
2019-03-31T03:10:15.323Z,1013.05
2019-03-31T03:11:15.329Z,1013.11
2019-03-31T03:12:15.305Z,1013.12
2019-03-31T03:13:15.327Z,1013.15
2019-03-31T03:14:15.295Z,1013.17
2019-03-31T03:15:15.311Z,1013.15
2019-03-31T03:16:15.271Z,1013.16
2019-03-31T03:17:15.251Z,1013.15
2019-03-31T03:18:15.247Z,1013.18
2019-03-31T03:19:15.234Z,1013.16
2019-03-31T03:20:15.223Z,1013.17
2019-03-31T03:21:15.226Z,1013.18
2019-03-31T03:22:15.196Z,1013.19
2019-03-31T03:23:15.191Z,1013.16
2019-03-31T03:24:15.178Z,1013.18
2019-03-31T03:25:15.173Z,1013.16
2019-03-31T03:26:15.163Z,1013.13
2019-03-31T03:27:15.143Z,1013.15
2019-03-31T03:28:15.142Z,1013.18
2019-03-31T03:29:15.127Z,1013.22
2019-03-31T03:30:15.111Z,1013.23
2019-03-31T03:31:16.743Z,1013.23
2019-03-31T03:32:15.104Z,1013.19
2019-03-31T03:33:17.666Z,1013.24
2019-03-31T03:34:15.074Z,1013.27
2019-03-31T03:35:15.093Z,1013.32
2019-03-31T03:36:15.051Z,1013.30
2019-03-31T03:37:15.049Z,1013.33
2019-03-31T03:38:15.030Z,1013.33
2019-03-31T03:39:15.020Z,1013.32
2019-03-31T03:40:15.035Z,1013.36
2019-03-31T03:41:15.010Z,1013.33
2019-03-31T03:42:15.004Z,1013.36
2019-03-31T03:43:14.973Z,1013.36
2019-03-31T03:44:14.964Z,1013.34
2019-03-31T03:45:14.949Z,1013.36
2019-03-31T03:46:14.944Z,1013.37
2019-03-31T03:47:14.937Z,1013.35
2019-03-31T03:48:14.934Z,1013.29
2019-03-31T03:49:15.083Z,1013.33
2019-03-31T03:50:14.898Z,1013.33
2019-03-31T03:51:14.886Z,1013.31
2019-03-31T03:52:14.897Z,1013.37
2019-03-31T03:53:14.876Z,1013.34
2019-03-31T03:54:14.859Z,1013.36
2019-03-31T03:55:14.851Z,1013.37
2019-03-31T03:56:14.835Z,1013.40
2019-03-31T03:57:14.841Z,1013.42
2019-03-31T03:58:14.834Z,1013.45
2019-03-31T03:59:14.800Z,1013.45
2019-03-31T04:00:14.788Z,1013.44
2019-03-31T04:01:14.779Z,1013.44
2019-03-31T04:02:14.775Z,1013.49
2019-03-31T04:03:29.202Z,1013.47
2019-03-31T04:05:24.536Z,1013.46
2019-03-31T04:06:24.517Z,1013.44
2019-03-31T04:07:24.508Z,1013.51
2019-03-31T04:08:24.498Z,1013.52
2019-03-31T04:09:24.497Z,1013.50
2019-03-31T04:10:24.471Z,1013.54
2019-03-31T04:11:24.457Z,1013.51
2019-03-31T04:12:24.448Z,1013.51
2019-03-31T04:13:24.459Z,1013.52
2019-03-31T04:14:24.491Z,1013.55
2019-03-31T04:15:24.414Z,1013.53
2019-03-31T04:16:24.405Z,1013.52
2019-03-31T04:17:24.402Z,1013.53
2019-03-31T04:18:24.381Z,1013.57
2019-03-31T04:19:24.378Z,1013.55
2019-03-31T04:20:24.370Z,1013.56
2019-03-31T04:21:24.350Z,1013.58
2019-03-31T04:22:24.340Z,1013.61
2019-03-31T04:23:24.332Z,1013.65
2019-03-31T04:24:24.325Z,1013.65
2019-03-31T04:25:24.320Z,1013.66
2019-03-31T04:26:24.338Z,1013.72
2019-03-31T04:27:24.291Z,1013.69
2019-03-31T04:28:24.274Z,1013.70
2019-03-31T04:29:24.269Z,1013.70
2019-03-31T04:30:24.272Z,1013.66
2019-03-31T04:31:24.254Z,1013.72
2019-03-31T04:32:24.235Z,1013.74
2019-03-31T04:33:24.227Z,1013.70
2019-03-31T04:34:24.222Z,1013.71
2019-03-31T04:35:24.232Z,1013.72
2019-03-31T04:36:24.191Z,1013.75
2019-03-31T04:37:24.179Z,1013.74
2019-03-31T04:38:24.181Z,1013.76
2019-03-31T04:39:24.160Z,1013.73
2019-03-31T04:40:24.144Z,1013.73
2019-03-31T04:41:24.156Z,1013.78
2019-03-31T04:42:24.127Z,1013.78
2019-03-31T04:43:24.120Z,1013.78
2019-03-31T04:44:24.108Z,1013.81
2019-03-31T04:45:24.088Z,1013.82
2019-03-31T04:46:24.084Z,1013.86
2019-03-31T04:47:24.076Z,1013.88
2019-03-31T04:48:24.057Z,1013.91
2019-03-31T04:49:24.048Z,1013.92
2019-03-31T04:50:24.041Z,1013.93
2019-03-31T04:51:24.051Z,1013.92
2019-03-31T04:52:24.020Z,1013.97
2019-03-31T04:53:24.008Z,1013.98
2019-03-31T04:54:24.002Z,1013.97
2019-03-31T04:55:23.987Z,1013.97
2019-03-31T04:56:23.981Z,1013.98
2019-03-31T04:57:23.976Z,1013.99
2019-03-31T04:58:23.952Z,1014.01
2019-03-31T04:59:23.943Z,1014.02
2019-03-31T05:00:23.931Z,1014.04
2019-03-31T05:01:23.923Z,1014.06
2019-03-31T05:02:27.045Z,1014.11
2019-03-31T05:03:23.896Z,1014.13
2019-03-31T05:04:23.891Z,1014.16
2019-03-31T05:05:23.872Z,1014.17
2019-03-31T05:06:23.865Z,1014.20
2019-03-31T05:07:23.855Z,1014.22
2019-03-31T05:08:23.862Z,1014.26
2019-03-31T05:09:23.829Z,1014.24
2019-03-31T05:10:23.821Z,1014.28
2019-03-31T05:11:23.811Z,1014.30
2019-03-31T05:12:23.798Z,1014.33
2019-03-31T05:13:23.801Z,1014.35
2019-03-31T05:14:23.779Z,1014.35
2019-03-31T05:15:23.767Z,1014.34
2019-03-31T05:16:23.755Z,1014.35
2019-03-31T05:17:23.745Z,1014.39
2019-03-31T05:18:23.743Z,1014.42
2019-03-31T05:19:23.735Z,1014.41
2019-03-31T05:20:23.720Z,1014.46
2019-03-31T05:21:23.703Z,1014.48
2019-03-31T05:22:23.691Z,1014.49
2019-03-31T05:23:23.678Z,1014.54
2019-03-31T05:24:23.675Z,1014.53
2019-03-31T05:25:23.666Z,1014.60
2019-03-31T05:26:23.647Z,1014.61
2019-03-31T05:27:23.638Z,1014.61
2019-03-31T05:28:23.630Z,1014.63
2019-03-31T05:29:23.656Z,1014.64
2019-03-31T05:30:23.610Z,1014.66
2019-03-31T05:31:23.603Z,1014.71
2019-03-31T05:32:23.592Z,1014.72
2019-03-31T05:33:23.575Z,1014.77
2019-03-31T05:34:23.578Z,1014.77
2019-03-31T05:35:26.837Z,1014.83
2019-03-31T05:36:23.550Z,1014.82
2019-03-31T05:37:23.535Z,1014.89
2019-03-31T05:38:23.521Z,1014.86
2019-03-31T05:39:23.512Z,1014.89
2019-03-31T05:40:23.495Z,1014.88
2019-03-31T05:41:23.489Z,1014.92
2019-03-31T05:42:23.480Z,1014.95
2019-03-31T05:43:23.502Z,1014.96
2019-03-31T05:44:23.463Z,1014.99
2019-03-31T05:45:23.484Z,1014.96
2019-03-31T05:46:23.435Z,1015.01
2019-03-31T05:47:23.424Z,1015.02
2019-03-31T05:48:23.410Z,1014.97
2019-03-31T05:49:23.401Z,1014.98
2019-03-31T05:50:23.386Z,1014.98
2019-03-31T05:51:23.387Z,1015.04
2019-03-31T05:52:23.366Z,1015.05
2019-03-31T05:53:23.353Z,1015.08
2019-03-31T05:54:23.357Z,1015.11
2019-03-31T05:55:23.332Z,1015.13
2019-03-31T05:56:23.329Z,1015.11
2019-03-31T05:57:23.315Z,1015.12
2019-03-31T05:58:23.311Z,1015.12
2019-03-31T05:59:23.319Z,1015.19
2019-03-31T06:00:23.282Z,1015.17
2019-03-31T06:01:23.298Z,1015.21
2019-03-31T06:02:23.264Z,1015.15
2019-03-31T06:03:23.252Z,1015.18
2019-03-31T06:04:33.145Z,1015.19
2019-03-31T06:05:24.257Z,1015.19
2019-03-31T06:06:23.217Z,1015.16
2019-03-31T06:07:23.206Z,1015.27
2019-03-31T06:08:23.195Z,1015.28
2019-03-31T06:09:23.187Z,1015.29
2019-03-31T06:10:23.169Z,1015.26
2019-03-31T06:11:23.173Z,1015.26
2019-03-31T06:12:23.154Z,1015.32
2019-03-31T06:13:23.140Z,1015.30
2019-03-31T06:14:23.156Z,1015.32
2019-03-31T06:15:23.130Z,1015.33
2019-03-31T06:16:23.106Z,1015.35
2019-03-31T06:17:23.091Z,1015.33
2019-03-31T06:18:23.080Z,1015.34
2019-03-31T06:19:23.075Z,1015.40
2019-03-31T06:20:23.081Z,1015.37
2019-03-31T06:21:23.054Z,1015.40
2019-03-31T06:22:23.051Z,1015.46
2019-03-31T06:23:23.031Z,1015.45
2019-03-31T06:24:23.013Z,1015.47
2019-03-31T06:25:23.007Z,1015.51
2019-03-31T06:26:23.013Z,1015.53
2019-03-31T06:27:22.993Z,1015.46
2019-03-31T06:28:22.969Z,1015.42
2019-03-31T06:29:22.965Z,1015.52
2019-03-31T06:30:23.009Z,1015.54
2019-03-31T06:31:22.942Z,1015.54
2019-03-31T06:32:22.925Z,1015.58
2019-03-31T06:33:22.922Z,1015.62
2019-03-31T06:34:22.904Z,1015.72
2019-03-31T06:35:22.895Z,1015.76
2019-03-31T06:36:22.922Z,1015.74
2019-03-31T06:37:22.871Z,1015.73
2019-03-31T06:38:22.868Z,1015.73
2019-03-31T06:39:22.861Z,1015.72
2019-03-31T06:40:22.838Z,1015.76
2019-03-31T06:41:22.829Z,1015.78
2019-03-31T06:42:22.830Z,1015.81
2019-03-31T06:43:22.806Z,1015.87
2019-03-31T06:44:22.806Z,1015.82
2019-03-31T06:45:22.785Z,1015.86
2019-03-31T06:46:22.773Z,1015.88
2019-03-31T06:47:22.775Z,1015.82
2019-03-31T06:48:22.763Z,1015.81
2019-03-31T06:49:22.750Z,1015.90
2019-03-31T06:50:22.737Z,1015.82
2019-03-31T06:51:22.717Z,1015.82
2019-03-31T06:52:22.718Z,1015.83
2019-03-31T06:53:22.702Z,1015.79
2019-03-31T06:54:22.702Z,1015.87
2019-03-31T06:55:22.685Z,1015.84
2019-03-31T06:56:22.663Z,1015.80
2019-03-31T06:57:22.653Z,1015.81
2019-03-31T06:58:22.643Z,1015.79
2019-03-31T06:59:22.737Z,1015.81
2019-03-31T07:00:22.637Z,1015.87
2019-03-31T07:01:22.614Z,1015.80
2019-03-31T07:02:22.604Z,1015.84
2019-03-31T07:03:22.592Z,1015.86
2019-03-31T07:04:22.580Z,1015.88
2019-03-31T07:05:22.580Z,1015.86
2019-03-31T07:06:22.565Z,1015.92
2019-03-31T07:07:23.987Z,1015.94
2019-03-31T07:08:22.539Z,1015.86
2019-03-31T07:09:22.527Z,1015.91
2019-03-31T07:10:22.556Z,1015.86
2019-03-31T07:11:22.504Z,1015.90
2019-03-31T07:12:22.495Z,1015.87
2019-03-31T07:13:22.497Z,1015.85
2019-03-31T07:14:22.468Z,1015.92
2019-03-31T07:15:22.465Z,1015.91
2019-03-31T07:16:22.463Z,1015.84
2019-03-31T07:17:22.442Z,1015.84
2019-03-31T07:18:22.442Z,1015.93
2019-03-31T07:19:22.418Z,1015.97
2019-03-31T07:20:22.417Z,1015.95
2019-03-31T07:21:22.406Z,1015.99
2019-03-31T07:22:24.364Z,1016.02
2019-03-31T07:23:22.375Z,1016.01
2019-03-31T07:24:22.367Z,1016.03
2019-03-31T07:25:22.389Z,1016.05
2019-03-31T07:26:22.337Z,1016.03
2019-03-31T07:27:22.326Z,1016.10
2019-03-31T07:28:22.319Z,1016.13
2019-03-31T07:29:22.323Z,1016.11
2019-03-31T07:30:22.301Z,1016.14
2019-03-31T07:31:22.811Z,1016.15
2019-03-31T07:32:22.272Z,1016.15
2019-03-31T07:33:22.260Z,1016.13
2019-03-31T07:34:22.255Z,1016.20
2019-03-31T07:35:22.240Z,1016.15
2019-03-31T07:36:22.258Z,1016.17
2019-03-31T07:37:22.227Z,1016.24
2019-03-31T07:38:22.477Z,1016.21
2019-03-31T07:39:22.378Z,1016.19
2019-03-31T07:40:22.349Z,1016.27
2019-03-31T07:41:22.250Z,1016.24
2019-03-31T07:42:22.221Z,1016.28
2019-03-31T07:43:22.155Z,1016.26
2019-03-31T07:44:22.166Z,1016.42
2019-03-31T07:45:22.129Z,1016.33
2019-03-31T07:46:22.123Z,1016.40
2019-03-31T07:47:22.119Z,1016.38
2019-03-31T07:48:22.125Z,1016.40
2019-03-31T07:49:22.091Z,1016.45
2019-03-31T07:50:22.139Z,1016.46
2019-03-31T07:51:22.068Z,1016.44
2019-03-31T07:52:22.064Z,1016.40
2019-03-31T07:53:22.048Z,1016.38
2019-03-31T07:54:22.041Z,1016.43
2019-03-31T07:55:22.022Z,1016.42
2019-03-31T07:56:22.009Z,1016.55
2019-03-31T07:57:21.998Z,1016.43
2019-03-31T07:58:22.045Z,1016.57
2019-03-31T07:59:22.027Z,1016.54
2019-03-31T08:00:21.971Z,1016.56
2019-03-31T08:01:21.964Z,1016.50
2019-03-31T08:02:21.951Z,1016.60
2019-03-31T08:03:21.956Z,1016.49
2019-03-31T08:04:21.921Z,1016.52
2019-03-31T08:05:32.502Z,1016.55
2019-03-31T08:06:22.901Z,1016.54
2019-03-31T08:07:21.894Z,1016.52
2019-03-31T08:08:21.877Z,1016.60
2019-03-31T08:09:21.886Z,1016.60
2019-03-31T08:10:21.860Z,1016.61
2019-03-31T08:11:21.857Z,1016.59
2019-03-31T08:12:21.835Z,1016.66
2019-03-31T08:13:21.823Z,1016.59
2019-03-31T08:14:21.829Z,1016.63
2019-03-31T08:15:21.821Z,1016.69
2019-03-31T08:16:21.791Z,1016.67
2019-03-31T08:17:21.791Z,1016.70
2019-03-31T08:18:21.771Z,1016.72
2019-03-31T08:19:21.760Z,1016.75
2019-03-31T08:20:21.760Z,1016.73
2019-03-31T08:21:21.736Z,1016.80
2019-03-31T08:22:21.727Z,1016.77
2019-03-31T08:23:21.719Z,1016.78
2019-03-31T08:24:21.705Z,1016.86
2019-03-31T08:25:21.739Z,1016.89
2019-03-31T08:26:21.683Z,1016.89
2019-03-31T08:27:21.670Z,1016.90
2019-03-31T08:28:21.659Z,1016.89
2019-03-31T08:29:21.651Z,1016.86
2019-03-31T08:30:21.644Z,1016.91
2019-03-31T08:31:21.640Z,1016.88
2019-03-31T08:32:21.620Z,1016.92
2019-03-31T08:33:21.611Z,1016.88
2019-03-31T08:34:21.594Z,1016.95
2019-03-31T08:35:21.592Z,1016.97
2019-03-31T08:36:21.593Z,1017.03
2019-03-31T08:37:21.567Z,1017.03
2019-03-31T08:38:24.333Z,1017.00
2019-03-31T08:39:21.538Z,1017.00
2019-03-31T08:40:21.534Z,1016.96
2019-03-31T08:41:21.536Z,1017.07
2019-03-31T08:42:21.504Z,1017.02
2019-03-31T08:43:21.505Z,1017.04
2019-03-31T08:44:21.490Z,1017.08
2019-03-31T08:45:21.477Z,1017.01
2019-03-31T08:46:21.467Z,1017.05
2019-03-31T08:47:21.461Z,1017.02
2019-03-31T08:48:21.441Z,1017.04
2019-03-31T08:49:21.433Z,1017.02
2019-03-31T08:50:21.421Z,1017.07
2019-03-31T08:51:21.411Z,1017.14
2019-03-31T08:52:21.410Z,1017.11
2019-03-31T08:53:21.387Z,1017.11
2019-03-31T08:54:21.381Z,1017.17
2019-03-31T08:55:21.368Z,1017.19
2019-03-31T08:56:21.357Z,1017.17
2019-03-31T08:57:21.349Z,1017.24
2019-03-31T08:58:21.327Z,1017.21
2019-03-31T08:59:21.327Z,1017.24
2019-03-31T09:00:21.341Z,1017.33
2019-03-31T09:01:21.322Z,1017.28
2019-03-31T09:02:21.292Z,1017.29
2019-03-31T09:03:21.275Z,1017.33
2019-03-31T09:04:21.264Z,1017.33
2019-03-31T09:05:21.258Z,1017.31
2019-03-31T09:06:21.253Z,1017.32
2019-03-31T09:07:21.230Z,1017.31
2019-03-31T09:08:21.232Z,1017.33
2019-03-31T09:09:21.210Z,1017.30
2019-03-31T09:10:21.202Z,1017.29
2019-03-31T09:11:21.197Z,1017.36
2019-03-31T09:12:21.190Z,1017.32
2019-03-31T09:13:21.197Z,1017.37
2019-03-31T09:14:21.162Z,1017.33
2019-03-31T09:15:21.153Z,1017.34
2019-03-31T09:16:21.134Z,1017.33
2019-03-31T09:17:21.136Z,1017.32
2019-03-31T09:18:21.116Z,1017.31
2019-03-31T09:19:21.119Z,1017.29
2019-03-31T09:20:21.131Z,1017.29
2019-03-31T09:21:21.084Z,1017.30
2019-03-31T09:22:21.069Z,1017.35
2019-03-31T09:23:21.061Z,1017.31
2019-03-31T09:24:21.046Z,1017.30
2019-03-31T09:25:21.040Z,1017.30
2019-03-31T09:26:21.031Z,1017.33
2019-03-31T09:27:21.016Z,1017.33
2019-03-31T09:28:21.001Z,1017.34
2019-03-31T09:29:20.993Z,1017.37
2019-03-31T09:30:20.989Z,1017.36
2019-03-31T09:31:20.992Z,1017.39
2019-03-31T09:32:20.959Z,1017.41
2019-03-31T09:33:20.951Z,1017.44
2019-03-31T09:34:20.940Z,1017.42
2019-03-31T09:35:20.926Z,1017.44
2019-03-31T09:36:20.912Z,1017.47
2019-03-31T09:37:20.911Z,1017.49
2019-03-31T09:38:20.891Z,1017.50
2019-03-31T09:39:20.887Z,1017.53
2019-03-31T09:40:20.878Z,1017.54
2019-03-31T09:41:20.865Z,1017.52
2019-03-31T09:42:20.861Z,1017.55
2019-03-31T09:43:20.839Z,1017.51
2019-03-31T09:44:20.825Z,1017.50
2019-03-31T09:45:20.829Z,1017.54
2019-03-31T09:46:20.826Z,1017.56
2019-03-31T09:47:20.803Z,1017.56
2019-03-31T09:48:20.782Z,1017.57
2019-03-31T09:49:20.767Z,1017.58
2019-03-31T09:50:20.763Z,1017.54
2019-03-31T09:51:20.768Z,1017.56
2019-03-31T09:52:20.749Z,1017.59
2019-03-31T09:53:20.731Z,1017.59
2019-03-31T09:54:20.712Z,1017.55
2019-03-31T09:55:23.109Z,1017.60
2019-03-31T09:56:20.701Z,1017.56
2019-03-31T09:57:20.725Z,1017.61
2019-03-31T09:58:20.678Z,1017.64
2019-03-31T09:59:20.659Z,1017.66
2019-03-31T10:00:20.648Z,1017.67
2019-03-31T10:01:20.637Z,1017.63
2019-03-31T10:02:20.630Z,1017.66
2019-03-31T10:03:20.634Z,1017.63
2019-03-31T10:04:28.325Z,1017.65
2019-03-31T10:05:20.605Z,1017.63
2019-03-31T10:06:30.083Z,1017.66
2019-03-31T10:07:23.763Z,1017.67
2019-03-31T10:08:22.259Z,1017.71
2019-03-31T10:09:20.556Z,1017.66
2019-03-31T10:10:20.544Z,1017.66
2019-03-31T10:11:20.603Z,1017.71
2019-03-31T10:12:20.523Z,1017.72
2019-03-31T10:13:20.520Z,1017.72
2019-03-31T10:14:20.495Z,1017.76
2019-03-31T10:15:20.492Z,1017.79
2019-03-31T10:16:20.478Z,1017.79
2019-03-31T10:17:20.462Z,1017.74
2019-03-31T10:18:20.495Z,1017.79
2019-03-31T10:19:20.440Z,1017.75
2019-03-31T10:20:20.445Z,1017.77
2019-03-31T10:21:20.423Z,1017.72
2019-03-31T10:22:20.418Z,1017.73
2019-03-31T10:23:20.409Z,1017.72
2019-03-31T10:24:20.396Z,1017.74
2019-03-31T10:25:20.381Z,1017.73
2019-03-31T10:26:30.990Z,1017.76
2019-03-31T10:27:21.354Z,1017.74
2019-03-31T10:28:20.351Z,1017.75
2019-03-31T10:29:20.347Z,1017.78
2019-03-31T10:30:20.402Z,1017.75
2019-03-31T10:31:20.319Z,1017.72
2019-03-31T10:32:20.306Z,1017.78
2019-03-31T10:33:20.289Z,1017.74
2019-03-31T10:34:20.337Z,1017.76
2019-03-31T10:35:20.266Z,1017.80
2019-03-31T10:36:20.261Z,1017.81
2019-03-31T10:37:20.253Z,1017.72
2019-03-31T10:38:20.236Z,1017.76
2019-03-31T10:39:20.227Z,1017.75
2019-03-31T10:40:20.227Z,1017.75
2019-03-31T10:41:20.206Z,1017.73
2019-03-31T10:42:20.211Z,1017.71
2019-03-31T10:43:20.194Z,1017.79
2019-03-31T10:44:20.212Z,1017.78
2019-03-31T10:45:20.158Z,1017.77
2019-03-31T10:46:20.151Z,1017.80
2019-03-31T10:47:20.140Z,1017.81
2019-03-31T10:48:21.406Z,1017.79
2019-03-31T10:49:20.189Z,1017.83
2019-03-31T10:50:20.115Z,1017.81
2019-03-31T10:51:20.092Z,1017.79
2019-03-31T10:52:20.086Z,1017.80
2019-03-31T10:53:20.795Z,1017.77
2019-03-31T10:54:20.056Z,1017.82
2019-03-31T10:55:20.077Z,1017.85
2019-03-31T10:56:20.039Z,1017.77
2019-03-31T10:57:20.033Z,1017.78
2019-03-31T10:58:20.012Z,1017.84
2019-03-31T10:59:20.014Z,1017.81
2019-03-31T11:00:20.006Z,1017.81
2019-03-31T11:01:19.994Z,1017.79
2019-03-31T11:02:19.968Z,1017.74
2019-03-31T11:03:19.961Z,1017.79
2019-03-31T11:04:19.952Z,1017.79
2019-03-31T11:05:19.942Z,1017.85
2019-03-31T11:06:20.037Z,1017.83
2019-03-31T11:07:20.040Z,1017.81
2019-03-31T11:08:19.910Z,1017.87
2019-03-31T11:09:19.899Z,1017.83
2019-03-31T11:10:19.893Z,1017.83
2019-03-31T11:11:19.902Z,1017.78
2019-03-31T11:12:19.913Z,1017.79
2019-03-31T11:13:19.860Z,1017.92
2019-03-31T11:14:19.848Z,1017.91
2019-03-31T11:15:19.829Z,1017.86
2019-03-31T11:16:19.830Z,1017.84
2019-03-31T11:17:19.823Z,1017.81
2019-03-31T11:18:19.864Z,1017.79
2019-03-31T11:19:19.795Z,1017.80
2019-03-31T11:20:19.805Z,1017.79
2019-03-31T11:21:19.848Z,1017.77
2019-03-31T11:22:19.757Z,1017.63
2019-03-31T11:23:19.751Z,1017.64
2019-03-31T11:24:19.757Z,1017.69
2019-03-31T11:25:21.227Z,1017.82
2019-03-31T11:26:19.712Z,1017.65
2019-03-31T11:27:19.714Z,1017.66
2019-03-31T11:28:19.693Z,1017.67
2019-03-31T11:29:19.700Z,1017.89
2019-03-31T11:30:19.683Z,1017.80
2019-03-31T11:31:19.733Z,1017.67
2019-03-31T11:32:19.679Z,1017.67
2019-03-31T11:33:19.630Z,1017.61
2019-03-31T11:34:19.876Z,1017.69
2019-03-31T11:35:19.611Z,1017.69
2019-03-31T11:36:19.623Z,1017.73
2019-03-31T11:37:19.609Z,1017.74
2019-03-31T11:38:19.603Z,1017.70
2019-03-31T11:39:19.574Z,1017.70
2019-03-31T11:40:19.653Z,1017.78
2019-03-31T11:41:19.553Z,1017.76
2019-03-31T11:42:19.536Z,1017.69
2019-03-31T11:43:19.548Z,1017.76
2019-03-31T11:44:19.556Z,1017.73
2019-03-31T11:45:19.532Z,1017.71
2019-03-31T11:46:19.540Z,1017.69
2019-03-31T11:47:19.477Z,1017.73
2019-03-31T11:48:19.473Z,1017.73
2019-03-31T11:49:19.491Z,1017.72
2019-03-31T11:50:19.451Z,1017.80
2019-03-31T11:51:19.505Z,1017.79
2019-03-31T11:52:19.425Z,1017.75
2019-03-31T11:53:19.447Z,1017.73
2019-03-31T11:54:19.403Z,1017.80
2019-03-31T11:55:19.402Z,1017.76
2019-03-31T11:56:19.385Z,1017.75
2019-03-31T11:57:19.384Z,1017.79
2019-03-31T11:58:19.366Z,1017.82
2019-03-31T11:59:20.998Z,1017.86
2019-03-31T12:00:19.355Z,1017.80
2019-03-31T12:01:19.419Z,1017.77
2019-03-31T12:02:26.852Z,1017.80
2019-03-31T12:03:20.471Z,1017.85
2019-03-31T12:04:19.311Z,1017.80
2019-03-31T12:05:19.392Z,1017.80
2019-03-31T12:06:19.271Z,1017.94